Time;durP1;ratioP1;P1;durP2;ratioP2;P2;SDS_P1;SDS_P2;PMS_P1;PMS_P2;Temp;Humidity;BMP_temperature;BMP_pressure;BME280_temperature;BME280_humidity;BME280_pressure;Samples;Min_cycle;Max_cycle;Signal;HPM_P1;HPM_P2
2022/02/11 00:04:43;;;;;;;111.97;100.32;;;4.40;99.90;;;;;;4806339;29;20218;-85
2022/02/11 00:07:29;;;;;;;;;;;;;;;;;;;;;
2022/02/11 00:17:02;;;;;;;98.03;87.05;;;4.40;99.90;;;;;;4830575;29;20183;-86
2022/02/11 00:19:34;;;;;;;102.47;91.55;;;4.50;99.90;;;;;;4862256;29;20186;-85
2022/02/11 00:22:11;;;;;;;107.85;96.72;;;4.40;99.90;;;;;;4862393;29;20219;-86
2022/02/11 00:24:40;;;;;;;125.55;113.95;;;4.40;99.90;;;;;;4861425;29;20234;-85
2022/02/11 00:37:39;;;;;;;93.70;73.47;;;4.50;99.90;;;;;;4841368;29;20240;-85
2022/02/11 01:04:59;;;;;;;109.45;97.90;;;4.30;99.90;;;;;;4790560;30;20188;-85
2022/02/11 01:08:15;;;;;;;93.70;76.22;;;4.30;99.90;;;;;;4736805;30;20222;-85
2022/02/11 01:15:03;;;;;;;;;;;;;;;;;;;;;
2022/02/11 01:21:37;;;;;;;;;;;;;;;;;;;;;
2022/02/11 01:52:09;;;;;;;;;;;;;;;;;;;;;
2022/02/11 02:01:23;;;;;;;;;;;;;;;;;;;;;
2022/02/11 02:13:52;;;;;;;96.57;77.95;;;3.80;99.90;;;;;;4835531;29;20179;-85
2022/02/11 02:57:34;;;;;;;102.65;86.05;;;3.60;99.90;;;;;;4845188;29;20666;-85
2022/02/11 04:56:25;;;;;;;106.80;81.72;;;3.80;99.90;;;;;;4885342;29;20276;-84
2022/02/11 05:01:34;;;;;;;170.20;155.23;;;3.90;99.90;;;;;;4885294;29;20211;-84
2022/02/11 05:04:03;;;;;;;119.07;106.33;;;3.90;99.90;;;;;;4883430;29;20170;-84
2022/02/11 05:06:29;;;;;;;103.88;91.45;;;4.00;99.90;;;;;;4883419;29;20230;-84
2022/02/11 05:08:54;;;;;;;147.57;134.23;;;4.00;99.90;;;;;;4884187;29;20225;-85
2022/02/11 05:11:20;;;;;;;111.53;99.63;;;4.00;99.90;;;;;;4884418;29;20166;-85
2022/02/11 05:13:46;;;;;;;102.53;77.80;;;4.00;99.90;;;;;;4884676;29;20179;-85
2022/02/11 05:16:11;;;;;;;213.50;197.90;;;4.00;99.90;;;;;;4883274;29;20196;-85
2022/02/11 05:18:40;;;;;;;104.63;87.37;;;4.00;99.90;;;;;;4883699;29;20590;-85
2022/02/11 05:21:05;;;;;;;100.53;85.30;;;4.00;99.90;;;;;;4883531;29;20218;-85
2022/02/11 05:23:31;;;;;;;101.07;89.80;;;4.00;99.90;;;;;;4884526;29;20167;-84
2022/02/11 05:26:05;;;;;;;186.17;171.47;;;4.00;99.90;;;;;;4882616;29;20195;-85
2022/02/11 05:28:31;;;;;;;107.63;96.07;;;4.10;99.90;;;;;;4882931;29;20180;-85
2022/02/11 05:30:57;;;;;;;126.67;114.10;;;4.10;99.90;;;;;;4883831;29;20254;-85
2022/02/11 05:33:24;;;;;;;100.77;86.17;;;4.10;99.90;;;;;;4885129;29;20203;-85
2022/02/11 05:35:59;;;;;;;120.50;107.25;;;4.10;99.90;;;;;;4888335;29;20250;-85
2022/02/11 05:38:24;;;;;;;94.72;75.60;;;4.20;99.90;;;;;;4887923;29;20193;-85
2022/02/11 05:40:52;;;;;;;113.43;100.87;;;4.10;99.90;;;;;;4887913;29;20174;-85
2022/02/11 05:43:18;;;;;;;98.78;85.15;;;4.20;99.90;;;;;;4886104;29;20975;-85
2022/02/11 05:45:43;;;;;;;96.40;71.83;;;4.10;99.90;;;;;;4886508;29;20237;-85
2022/02/11 05:48:10;;;;;;;94.27;68.50;;;4.10;99.90;;;;;;4887614;29;20195;-84
2022/02/11 05:50:36;;;;;;;98.90;71.07;;;4.10;99.90;;;;;;4885851;29;20171;-85
2022/02/11 05:53:05;;;;;;;103.03;85.65;;;4.20;99.90;;;;;;4886315;29;20181;-85
2022/02/11 05:55:31;;;;;;;98.30;71.20;;;4.20;99.90;;;;;;4885486;29;20285;-85
2022/02/11 05:58:00;;;;;;;96.67;75.97;;;4.20;99.90;;;;;;4887090;29;20644;-85
2022/02/11 06:00:26;;;;;;;113.63;101.65;;;4.20;99.90;;;;;;4886803;29;20471;-85
2022/02/11 06:02:52;;;;;;;111.65;100.07;;;4.20;99.90;;;;;;4887363;29;20575;-85
2022/02/11 06:05:19;;;;;;;95.75;71.70;;;4.20;99.90;;;;;;4885378;29;20202;-84
2022/02/11 06:07:47;;;;;;;117.70;105.70;;;4.20;99.90;;;;;;4885946;29;20686;-85
2022/02/11 06:10:13;;;;;;;106.88;92.88;;;4.30;99.90;;;;;;4886947;29;20174;-85
2022/02/11 06:12:39;;;;;;;103.75;83.25;;;4.30;99.90;;;;;;4886538;29;20173;-84
2022/02/11 06:15:07;;;;;;;100.00;85.10;;;4.30;99.90;;;;;;4886622;29;20191;-85
2022/02/11 06:17:38;;;;;;;114.10;97.65;;;4.40;99.90;;;;;;4886964;29;20257;-85
2022/02/11 06:20:06;;;;;;;114.65;101.82;;;4.40;99.90;;;;;;4885541;29;20177;-85
2022/02/11 06:22:33;;;;;;;124.47;112.03;;;4.40;99.90;;;;;;4886418;29;20199;-85
2022/02/11 06:25:20;;;;;;;270.77;252.88;;;4.40;99.90;;;;;;4885563;29;20190;-85
2022/02/11 06:27:49;;;;;;;99.47;78.47;;;4.30;99.90;;;;;;4885718;29;20666;-85
2022/02/11 06:30:29;;;;;;;108.55;94.25;;;4.40;99.90;;;;;;4886528;29;20210;-85
2022/02/11 06:33:37;;;;;;;128.00;115.22;;;4.40;99.90;;;;;;4886204;29;20186;-85
2022/02/11 06:36:21;;;;;;;107.10;84.97;;;4.40;99.90;;;;;;4865853;29;20223;-85
2022/02/11 06:38:58;;;;;;;102.32;81.07;;;4.40;99.90;;;;;;4865809;29;20640;-85
2022/02/11 06:41:27;;;;;;;100.85;88.28;;;4.40;99.90;;;;;;4886468;29;20215;-86
2022/02/11 06:47:24;;;;;;;111.20;90.38;;;4.40;99.90;;;;;;4885881;29;20191;-86
2022/02/11 06:49:58;;;;;;;106.50;78.55;;;4.40;99.90;;;;;;4885596;29;20173;-85
2022/02/11 06:52:59;;;;;;;130.95;117.70;;;4.40;99.90;;;;;;4883354;29;20198;-86
2022/02/11 06:56:36;;;;;;;114.70;94.63;;;4.50;99.90;;;;;;4884984;29;20204;-85
2022/02/11 06:58:52;;;;;;;172.95;158.50;;;4.50;99.90;;;;;;4881054;29;20183;-85
2022/02/11 07:01:52;;;;;;;129.20;115.68;;;4.50;99.90;;;;;;4884976;29;20174;-85
2022/02/11 07:05:07;;;;;;;;;;;;;;;;;;;;;
2022/02/11 07:07:45;;;;;;;103.82;79.90;;;4.50;99.90;;;;;;4858087;29;20224;-86
2022/02/11 07:17:09;;;;;;;106.07;95.03;;;4.60;99.90;;;;;;4893433;23;20321;-86
2022/02/11 07:23:15;;;;;;;107.53;96.03;;;4.60;99.90;;;;;;4867239;29;20265;-88
2022/02/11 07:30:01;;;;;;;;;;;;;;;;;;;;;
2022/02/11 07:33:31;;;;;;;98.70;70.45;;;4.80;99.90;;;;;;4865222;29;20250;-87
2022/02/11 07:40:28;;;;;;;290.33;268.67;;;4.80;99.90;;;;;;4826545;29;20180;-87
2022/02/11 07:43:48;;;;;;;138.18;125.10;;;4.80;99.90;;;;;;4771929;30;20171;-87
2022/02/11 07:46:35;;;;;;;146.73;132.38;;;4.90;99.90;;;;;;4824995;29;20243;-87
2022/02/11 07:49:24;;;;;;;;;;;;;;;;;;;;;
2022/02/11 07:52:11;;;;;;;162.80;148.32;;;4.90;99.90;;;;;;4826070;29;20660;-87
2022/02/11 07:55:13;;;;;;;115.10;100.30;;;4.90;99.90;;;;;;4825710;29;20181;-88
2022/02/11 07:57:45;;;;;;;91.03;57.58;;;4.90;99.90;;;;;;4826248;29;20313;-87
2022/02/11 08:00:21;;;;;;;149.88;136.45;;;4.90;99.90;;;;;;4826083;29;20275;-87
2022/02/11 08:02:47;;;;;;;102.45;84.20;;;5.00;99.90;;;;;;4857686;29;20187;-87
2022/02/11 08:05:13;;;;;;;107.07;68.37;;;5.00;99.90;;;;;;4866663;29;20202;-87
2022/02/11 08:07:41;;;;;;;96.40;68.07;;;5.00;99.90;;;;;;4864652;29;20460;-85
2022/02/11 08:10:13;;;;;;;104.75;79.03;;;5.00;99.90;;;;;;4865375;29;20416;-88
2022/02/11 08:12:39;;;;;;;97.82;71.78;;;5.00;99.90;;;;;;4863743;29;20543;-87
2022/02/11 08:15:11;;;;;;;190.60;175.77;;;5.10;99.90;;;;;;4864951;29;20251;-87
2022/02/11 08:17:42;;;;;;;95.10;62.83;;;5.20;99.90;;;;;;4864709;29;20601;-86
2022/02/11 08:20:15;;;;;;;93.55;68.13;;;5.20;99.90;;;;;;4865421;29;20163;-87
2022/02/11 08:22:55;;;;;;;108.25;84.03;;;5.20;99.90;;;;;;4864997;29;20168;-86
2022/02/11 08:25:21;;;;;;;98.80;82.55;;;5.20;99.90;;;;;;4863622;29;20195;-86
2022/02/11 08:28:18;;;;;;;;;;;;;;;;;;;;;
2022/02/11 08:31:19;;;;;;;116.28;103.85;;;5.20;99.90;;;;;;4863880;29;20167;-87
2022/02/11 08:33:51;;;;;;;179.00;164.65;;;5.30;99.90;;;;;;4843927;29;20597;-87
2022/02/11 08:36:41;;;;;;;166.45;151.75;;;5.30;99.90;;;;;;4857883;29;20557;-87
2022/02/11 08:39:09;;;;;;;92.78;73.05;;;5.30;99.90;;;;;;4865493;29;20186;-87
2022/02/11 08:41:57;;;;;;;121.85;109.47;;;5.30;99.90;;;;;;4864978;29;20199;-87
2022/02/11 08:44:37;;;;;;;145.40;131.90;;;5.20;99.90;;;;;;4864443;29;20207;-86
2022/02/11 08:47:38;;;;;;;123.35;110.93;;;5.20;99.90;;;;;;4864174;29;20594;-87
2022/02/11 08:50:19;;;;;;;98.40;76.55;;;5.20;99.90;;;;;;4863965;29;20198;-87
2022/02/11 08:52:45;;;;;;;104.65;80.60;;;5.20;99.90;;;;;;4865530;29;20569;-87
2022/02/11 08:55:19;;;;;;;133.00;119.93;;;5.30;99.90;;;;;;4864439;29;20676;-86
2022/02/11 08:57:50;;;;;;;102.43;87.35;;;5.30;99.90;;;;;;4863508;29;20326;-87
2022/02/11 09:00:19;;;;;;;156.73;142.35;;;5.30;99.90;;;;;;4865651;29;20288;-87
2022/02/11 09:02:50;;;;;;;197.95;181.52;;;5.40;99.90;;;;;;4864578;29;20182;-87
2022/02/11 09:05:16;;;;;;;101.55;87.28;;;5.40;99.90;;;;;;4864865;29;20187;-87
2022/02/11 09:07:47;;;;;;;104.17;88.67;;;5.50;99.90;;;;;;4862983;29;20771;-86
2022/02/11 09:10:33;;;;;;;149.98;136.40;;;5.50;99.90;;;;;;4868622;29;20557;-86
2022/02/11 09:13:26;;;;;;;146.10;131.73;;;5.50;99.90;;;;;;4868056;29;20176;-88
2022/02/11 09:16:40;;;;;;;182.25;167.77;;;5.60;99.90;;;;;;4866077;29;20206;-87
2022/02/11 09:19:03;;;;;;;;;;;;;;;;;;;;;
2022/02/11 09:22:02;;;;;;;106.50;95.43;;;5.70;99.90;;;;;;4866719;29;20238;-87
2022/02/11 09:25:03;;;;;;;105.70;90.47;;;5.70;99.90;;;;;;4860741;29;20691;-88
2022/02/11 09:27:55;;;;;;;104.43;81.90;;;5.70;99.90;;;;;;4867885;29;20218;-88
2022/02/11 09:30:45;;;;;;;79.47;30.75;;;5.70;99.90;;;;;;4859409;29;20183;-88
2022/02/11 09:33:33;;;;;;;89.32;48.70;;;5.70;99.90;;;;;;4866524;29;20175;-87
2022/02/11 09:36:34;;;;;;;81.75;23.33;;;5.80;99.90;;;;;;4866979;29;20699;-87
2022/02/11 09:39:04;;;;;;;77.38;22.92;;;5.80;99.90;;;;;;4867303;29;20171;-88
2022/02/11 09:41:31;;;;;;;96.53;38.45;;;5.90;99.90;;;;;;4867310;29;20183;-87
2022/02/11 09:45:00;;;;;;;73.47;26.48;;;6.00;99.90;;;;;;4866294;29;20183;-87
2022/02/11 09:47:47;;;;;;;75.22;22.17;;;6.00;99.90;;;;;;4868840;29;20230;-87
2022/02/11 09:50:24;;;;;;;72.90;17.77;;;6.00;99.90;;;;;;4860396;29;20202;-87
2022/02/11 09:52:58;;;;;;;80.03;24.42;;;6.00;99.90;;;;;;4866959;29;20258;-87
2022/02/11 09:55:51;;;;;;;80.88;21.00;;;6.20;99.90;;;;;;4879235;23;20214;-87
2022/02/11 09:58:34;;;;;;;80.03;23.70;;;6.30;99.90;;;;;;4886016;29;20199;-87
2022/02/11 10:02:16;;;;;;;78.43;18.83;;;6.40;99.90;;;;;;4884255;29;20269;-86
2022/02/11 10:07:20;;;;;;;77.50;14.88;;;6.50;46.00;;;;;;4865046;29;20267;-87
2022/02/11 10:09:57;;;;;;;83.47;23.37;;;6.50;37.00;;;;;;4864765;29;20180;-87
2022/02/11 10:12:49;;;;;;;71.03;13.45;;;6.50;30.30;;;;;;4865535;29;20451;-86
2022/02/11 10:15:54;;;;;;;71.97;12.23;;;6.40;12.40;;;;;;4861759;29;20214;-87
2022/02/11 10:19:01;;;;;;;;;;;;;;;;;;;;;
2022/02/11 10:21:34;;;;;;;88.07;49.65;;;6.70;13.70;;;;;;4866770;29;20264;-86
2022/02/11 10:23:59;;;;;;;78.53;13.77;;;6.90;1.00;;;;;;4881295;29;20659;-87
2022/02/11 10:26:51;;;;;;;71.13;11.90;;;6.90;1.00;;;;;;4865638;29;20195;-88
2022/02/11 10:29:17;;;;;;;72.63;10.38;;;6.80;1.00;;;;;;4859326;29;20195;-88
2022/02/11 10:32:15;;;;;;;72.10;9.87;;;6.80;1.00;;;;;;4866618;29;20175;-85
2022/02/11 10:35:14;;;;;;;90.55;11.93;;;6.70;1.00;;;;;;4864849;29;20234;-87
2022/02/11 10:38:20;;;;;;;78.05;12.50;;;6.80;1.00;;;;;;4836501;29;20183;-87
2022/02/11 10:41:05;;;;;;;79.88;13.18;;;6.90;1.00;;;;;;4865113;29;20692;-87
2022/02/11 10:43:48;;;;;;;;;;;;;;;;;;;;;
2022/02/11 10:46:54;;;;;;;86.65;24.25;;;7.10;1.00;;;;;;4866789;29;20202;-87
2022/02/11 10:49:32;;;;;;;80.97;14.48;;;7.10;1.00;;;;;;4867041;29;20219;-86
2022/02/11 12:06:18;;;;;;;69.82;5.45;;;7.10;1.00;;;;;;5087146;23;20414;-90
2022/02/11 13:31:15;;;;;;;68.82;14.95;;;7.20;1.00;;;;;;3033537;27;20581;-91
2022/02/11 13:34:05;;;;;;;66.97;7.35;;;7.20;1.00;;;;;;4860237;29;20178;-90
2022/02/11 13:44:30;;;;;;;68.97;9.35;;;7.30;1.00;;;;;;4888060;23;20602;-89
2022/02/11 13:51:05;;;;;;;;;;;;;;;;;;;;;
2022/02/11 13:54:13;;;;;;;74.50;13.68;;;7.40;1.00;;;;;;4841670;29;20535;-90
2022/02/11 14:04:42;;;;;;;68.03;6.55;;;7.80;1.00;;;;;;4727497;27;20225;-89
2022/02/11 14:21:41;;;;;;;72.82;4.85;;;7.10;1.00;;;;;;4825538;29;20658;-89
2022/02/11 14:48:25;;;;;;;64.35;3.97;;;6.80;1.00;;;;;;4872601;29;20224;-88
2022/02/11 14:51:22;;;;;;;66.20;4.22;;;6.80;1.00;;;;;;4881642;29;20635;-88
2022/02/11 14:54:35;;;;;;;64.28;4.30;;;7.00;1.00;;;;;;4880976;29;20269;-88
2022/02/11 14:57:36;;;;;;;67.32;5.13;;;7.00;1.00;;;;;;4879749;29;20209;-88
2022/02/11 15:57:45;;;;;;;71.18;4.63;;;7.00;1.00;;;;;;4700143;30;20227;-88
2022/02/11 16:39:49;;;;;;;;;;;;;;;;;;;;;
2022/02/11 16:53:30;;;;;;;64.97;5.10;;;5.90;1.00;;;;;;3964963;23;20261;-87
2022/02/11 16:55:56;;;;;;;67.33;4.77;;;5.80;1.00;;;;;;4881733;29;20686;-87
2022/02/11 16:58:22;;;;;;;67.00;5.97;;;5.80;1.00;;;;;;4880487;29;20254;-87
2022/02/11 17:00:47;;;;;;;64.50;5.43;;;5.80;1.00;;;;;;4882152;29;20543;-87
2022/02/11 17:03:13;;;;;;;64.10;5.60;;;5.80;1.00;;;;;;4881464;29;20581;-87
2022/02/11 17:05:39;;;;;;;74.30;10.97;;;5.90;1.00;;;;;;4881032;29;20186;-87
2022/02/11 17:08:05;;;;;;;76.33;13.63;;;5.90;1.00;;;;;;4881651;29;20666;-87
2022/02/11 17:10:31;;;;;;;74.47;12.73;;;5.80;1.00;;;;;;4881490;29;20475;-87
2022/02/11 17:12:57;;;;;;;72.25;14.43;;;5.80;1.00;;;;;;4882013;29;20414;-87
2022/02/11 17:15:23;;;;;;;74.80;14.10;;;5.80;1.00;;;;;;4880859;29;20198;-86
2022/02/11 17:17:49;;;;;;;68.82;10.75;;;5.80;1.00;;;;;;4880337;29;20175;-86
2022/02/11 17:20:16;;;;;;;67.73;8.30;;;5.80;1.00;;;;;;4880731;29;20181;-87
2022/02/11 17:22:43;;;;;;;67.93;6.25;;;5.80;1.00;;;;;;4879914;29;20427;-87
2022/02/11 17:25:13;;;;;;;66.82;8.38;;;5.70;1.00;;;;;;4879685;29;20205;-87
2022/02/11 17:27:42;;;;;;;67.10;8.05;;;5.70;1.00;;;;;;4879299;29;20205;-87
2022/02/11 17:30:12;;;;;;;67.45;6.07;;;5.70;1.00;;;;;;4883358;29;20170;-87
2022/02/11 17:32:39;;;;;;;68.00;8.07;;;5.70;1.00;;;;;;4884957;29;20203;-87
2022/02/11 17:35:08;;;;;;;66.88;6.55;;;5.70;1.00;;;;;;4883303;29;20200;-87
2022/02/11 17:37:34;;;;;;;68.70;7.82;;;5.60;1.00;;;;;;4884019;29;20702;-87
2022/02/11 17:40:02;;;;;;;80.47;7.50;;;5.60;1.00;;;;;;4881573;29;20645;-87
2022/02/11 17:42:27;;;;;;;70.03;6.90;;;5.40;1.00;;;;;;4883236;29;20171;-87
2022/02/11 17:45:01;;;;;;;65.40;4.73;;;5.40;1.00;;;;;;4881299;29;20227;-88
2022/02/11 17:47:28;;;;;;;69.32;6.32;;;5.30;1.00;;;;;;4882470;29;20187;-88
2022/02/11 17:49:56;;;;;;;76.88;14.45;;;5.20;1.00;;;;;;4881170;29;20246;-87
2022/02/11 17:52:22;;;;;;;69.55;12.45;;;5.10;1.00;;;;;;4882237;29;20183;-87
2022/02/11 17:54:53;;;;;;;71.93;11.93;;;5.00;1.00;;;;;;4882237;29;20173;-87
2022/02/11 17:57:18;;;;;;;69.03;10.50;;;4.80;1.00;;;;;;4881251;29;20568;-87
2022/02/11 17:59:50;;;;;;;68.90;15.87;;;4.60;1.00;;;;;;4882743;29;20198;-87
2022/02/11 18:02:19;;;;;;;70.15;13.50;;;4.50;1.00;;;;;;4880991;29;20181;-87
2022/02/11 18:04:47;;;;;;;69.70;11.27;;;4.30;1.00;;;;;;4882258;29;20591;-87
2022/02/11 18:07:18;;;;;;;69.60;9.55;;;4.30;1.00;;;;;;4883191;29;20190;-87
2022/02/11 18:09:50;;;;;;;72.20;9.10;;;4.30;1.00;;;;;;4881022;29;20174;-87
2022/02/11 18:12:35;;;;;;;70.00;10.00;;;4.20;1.00;;;;;;4880963;29;20166;-87
2022/02/11 18:15:03;;;;;;;67.60;8.00;;;4.10;1.00;;;;;;4881981;29;20667;-87
2022/02/11 18:17:49;;;;;;;78.78;6.88;;;4.10;1.00;;;;;;4880984;29;20539;-87
2022/02/11 18:20:18;;;;;;;72.53;9.65;;;4.00;1.00;;;;;;4880825;29;20194;-87
2022/02/11 18:22:44;;;;;;;69.50;6.40;;;4.10;1.00;;;;;;4880914;29;20631;-87
2022/02/11 18:25:18;;;;;;;71.53;6.40;;;4.10;1.00;;;;;;4880795;29;20195;-87
2022/02/11 18:27:44;;;;;;;68.85;7.38;;;4.00;1.00;;;;;;4882072;29;20441;-87
2022/02/11 18:30:13;;;;;;;66.93;6.53;;;3.90;1.00;;;;;;4880704;29;20170;-88
2022/02/11 18:32:39;;;;;;;68.90;7.43;;;3.90;1.00;;;;;;4880661;29;20411;-87
2022/02/11 18:35:08;;;;;;;73.07;7.97;;;3.70;1.00;;;;;;4880717;29;20555;-88
2022/02/11 18:37:59;;;;;;;72.00;8.13;;;3.60;1.00;;;;;;4881456;29;20403;-87
2022/02/11 18:40:31;;;;;;;72.65;7.82;;;3.40;1.00;;;;;;4874961;29;20182;-87
2022/02/11 18:43:00;;;;;;;72.88;8.63;;;3.40;1.00;;;;;;4881502;29;20182;-87
2022/02/11 18:45:26;;;;;;;69.15;7.50;;;3.30;1.00;;;;;;4881627;29;20278;-88
2022/02/11 18:47:54;;;;;;;74.47;9.87;;;3.40;1.00;;;;;;4880093;29;20231;-87
2022/02/11 18:50:23;;;;;;;69.43;8.32;;;3.20;1.00;;;;;;4881793;29;20506;-87
2022/02/11 18:52:52;;;;;;;71.95;8.40;;;3.20;1.00;;;;;;4880241;29;20190;-88
2022/02/11 18:55:27;;;;;;;67.57;9.63;;;3.10;1.00;;;;;;4881709;29;20266;-87
2022/02/11 18:57:53;;;;;;;71.43;8.20;;;3.10;1.00;;;;;;4881835;29;20670;-87
2022/02/11 19:03:13;;;;;;;71.72;7.72;;;3.00;1.00;;;;;;4881145;29;20219;-87
2022/02/11 19:05:42;;;;;;;69.55;6.63;;;2.90;1.00;;;;;;4880225;29;20194;-87
2022/02/11 19:08:08;;;;;;;67.85;7.53;;;2.90;1.00;;;;;;4879882;29;20679;-87
2022/02/11 19:10:34;;;;;;;71.20;10.67;;;2.80;1.00;;;;;;4880266;29;20182;-87
2022/02/11 19:13:00;;;;;;;68.00;8.50;;;2.70;1.00;;;;;;4884794;29;20847;-87
2022/02/11 19:15:29;;;;;;;70.20;9.43;;;2.60;1.00;;;;;;4881996;29;20226;-88
2022/02/11 19:17:59;;;;;;;69.15;8.57;;;2.60;1.00;;;;;;4881314;29;20167;-87
2022/02/11 19:20:28;;;;;;;70.07;9.73;;;2.60;1.00;;;;;;4879789;29;20643;-87
2022/02/11 19:22:57;;;;;;;74.03;13.43;;;2.60;1.00;;;;;;4880814;29;20657;-88
2022/02/11 19:25:28;;;;;;;69.03;13.07;;;2.50;1.00;;;;;;4880577;29;20202;-87
2022/02/11 19:28:03;;;;;;;81.22;16.77;;;2.50;1.00;;;;;;4880837;29;20280;-87
2022/02/11 19:30:32;;;;;;;72.82;12.95;;;2.50;1.00;;;;;;4864655;29;20185;-87
2022/02/11 19:33:00;;;;;;;73.80;15.70;;;2.50;1.00;;;;;;4879795;29;20169;-87
2022/02/11 19:35:31;;;;;;;70.55;13.25;;;2.50;1.00;;;;;;4879240;29;20277;-87
2022/02/11 19:37:57;;;;;;;74.60;13.35;;;2.40;1.00;;;;;;4879434;29;20612;-87
2022/02/11 19:40:52;;;;;;;70.20;10.80;;;2.40;1.00;;;;;;4879266;29;20186;-87
2022/02/11 19:43:52;;;;;;;73.13;11.07;;;2.30;1.00;;;;;;4880055;29;20215;-88
2022/02/11 19:46:23;;;;;;;70.93;8.77;;;2.30;1.00;;;;;;4879589;29;20570;-87
2022/02/11 19:48:49;;;;;;;72.57;9.15;;;2.20;1.00;;;;;;4879317;29;20205;-87
2022/02/11 19:51:17;;;;;;;70.70;8.60;;;2.10;1.00;;;;;;4879375;29;20201;-87
2022/02/11 19:53:43;;;;;;;76.22;10.95;;;2.10;1.00;;;;;;4878520;29;20540;-87
2022/02/11 19:56:09;;;;;;;71.57;11.27;;;2.00;1.00;;;;;;4880898;29;20731;-87
2022/02/11 19:58:41;;;;;;;72.03;12.13;;;1.90;1.00;;;;;;4880258;29;20707;-87
2022/02/11 20:01:07;;;;;;;73.15;11.65;;;1.90;1.00;;;;;;4880672;29;20174;-87
2022/02/11 20:03:35;;;;;;;72.57;12.17;;;1.90;1.00;;;;;;4879420;29;20181;-88
2022/02/11 20:06:02;;;;;;;76.50;14.38;;;1.80;1.00;;;;;;4880115;29;20215;-87
2022/02/11 20:08:29;;;;;;;74.15;12.02;;;1.80;1.00;;;;;;4880592;29;20187;-87
2022/02/11 20:10:58;;;;;;;76.78;13.20;;;1.80;1.00;;;;;;4880127;29;20221;-87
2022/02/11 20:13:29;;;;;;;75.28;13.45;;;1.70;1.00;;;;;;4879069;29;20178;-87
2022/02/11 20:15:58;;;;;;;84.00;16.92;;;1.70;1.00;;;;;;4880032;29;20318;-87
2022/02/11 20:18:27;;;;;;;75.68;19.65;;;1.70;1.00;;;;;;4878693;29;20179;-88
2022/02/11 20:20:59;;;;;;;80.63;16.33;;;1.70;1.00;;;;;;4879000;29;20182;-87
2022/02/11 20:23:28;;;;;;;80.13;17.15;;;1.70;1.00;;;;;;4879898;29;20218;-87
2022/02/11 20:25:54;;;;;;;75.68;14.15;;;1.70;1.00;;;;;;4878851;29;20195;-87
2022/02/11 20:28:20;;;;;;;74.20;13.10;;;1.70;1.00;;;;;;4879718;29;20197;-87
2022/02/11 20:30:48;;;;;;;76.72;18.38;;;1.60;1.00;;;;;;4879984;29;20415;-87
2022/02/11 20:33:19;;;;;;;84.10;32.72;;;1.60;1.00;;;;;;4878578;29;20673;-88
2022/02/11 20:35:48;;;;;;;85.18;33.03;;;1.70;1.00;;;;;;4879067;29;20290;-88
2022/02/11 20:38:16;;;;;;;77.47;26.70;;;1.60;1.00;;;;;;4878717;29;20254;-88
2022/02/11 20:40:42;;;;;;;80.70;26.30;;;1.60;1.00;;;;;;4879705;29;20244;-88
2022/02/11 20:43:08;;;;;;;84.70;23.60;;;1.50;1.00;;;;;;4878780;29;20196;-88
2022/02/11 20:45:34;;;;;;;75.50;22.27;;;1.50;1.00;;;;;;4878831;29;20863;-88
2022/02/11 20:48:00;;;;;;;74.50;21.07;;;1.50;1.00;;;;;;4878340;29;20233;-88
2022/02/11 20:50:40;;;;;;;79.63;28.77;;;1.50;1.00;;;;;;4878298;29;20423;-87
2022/02/11 20:53:14;;;;;;;80.00;25.90;;;1.40;1.00;;;;;;4879634;29;20466;-87
2022/02/11 20:55:50;;;;;;;80.97;29.00;;;1.40;1.00;;;;;;4878568;29;20226;-88
2022/02/11 20:58:23;;;;;;;81.93;29.90;;;1.30;1.00;;;;;;4879622;29;20178;-88
2022/02/11 21:00:48;;;;;;;79.78;26.83;;;1.30;1.00;;;;;;4879606;29;20155;-88
2022/02/11 21:03:18;;;;;;;85.53;34.00;;;1.40;1.00;;;;;;4878696;29;20186;-88
2022/02/11 21:05:53;;;;;;;86.28;34.78;;;1.40;1.00;;;;;;4882796;29;20199;-88
2022/02/11 21:08:19;;;;;;;83.65;30.63;;;1.40;1.00;;;;;;4882098;29;20666;-87
2022/02/11 21:10:46;;;;;;;83.32;31.90;;;1.30;1.00;;;;;;4883152;29;20227;-88
2022/02/11 21:13:11;;;;;;;89.88;30.48;;;1.30;1.00;;;;;;4881911;29;20155;-88
2022/02/11 21:15:37;;;;;;;84.07;30.77;;;1.30;1.00;;;;;;4882929;29;20195;-88
2022/02/11 21:18:05;;;;;;;80.60;28.30;;;1.30;1.00;;;;;;4882002;29;20230;-88
2022/02/11 21:20:34;;;;;;;79.97;27.45;;;1.30;1.00;;;;;;4881758;29;20175;-88
2022/02/11 21:23:00;;;;;;;83.00;29.80;;;1.20;2.90;;;;;;4881764;29;20182;-88
2022/02/11 21:25:28;;;;;;;83.93;32.17;;;1.20;8.60;;;;;;4882981;29;20498;-87
2022/02/11 21:27:57;;;;;;;82.57;27.23;;;1.30;15.50;;;;;;4882902;29;20285;-87
2022/02/11 21:30:25;;;;;;;83.25;28.85;;;1.30;16.40;;;;;;4882352;29;20205;-87
2022/02/11 21:32:54;;;;;;;85.72;26.92;;;1.30;7.10;;;;;;4881665;29;20174;-87
2022/02/11 21:35:23;;;;;;;82.25;26.13;;;1.20;1.00;;;;;;4881818;29;20187;-87
2022/02/11 21:37:52;;;;;;;85.43;28.95;;;1.20;1.00;;;;;;4881835;29;20170;-87
2022/02/11 21:40:21;;;;;;;86.25;23.65;;;1.20;1.00;;;;;;4881407;29;20178;-87
2022/02/11 21:42:47;;;;;;;81.55;23.25;;;1.10;1.40;;;;;;4881481;29;20296;-88
2022/02/11 21:45:13;;;;;;;83.70;26.43;;;1.10;3.30;;;;;;4881818;29;20562;-87
2022/02/11 21:47:39;;;;;;;79.70;24.77;;;1.00;1.00;;;;;;4881363;29;20453;-88
2022/02/11 21:50:10;;;;;;;82.00;25.40;;;1.00;1.00;;;;;;4883111;29;20403;-88
2022/02/11 21:52:38;;;;;;;81.22;25.92;;;1.00;1.00;;;;;;4881297;29;20469;-87
2022/02/11 21:55:05;;;;;;;83.95;24.88;;;1.10;1.00;;;;;;4881279;29;20194;-87
2022/02/11 21:57:31;;;;;;;79.05;23.55;;;1.30;1.00;;;;;;4881420;29;20174;-87
2022/02/11 21:59:57;;;;;;;80.87;26.07;;;1.40;1.00;;;;;;4882890;29;20589;-87
2022/02/11 22:02:22;;;;;;;81.00;25.27;;;1.40;1.00;;;;;;4882263;29;20415;-88
2022/02/11 22:04:54;;;;;;;77.77;23.77;;;1.40;1.00;;;;;;4882292;29;20177;-87
2022/02/11 22:07:20;;;;;;;86.82;23.48;;;1.40;1.00;;;;;;4882656;29;20183;-87
2022/02/11 22:09:47;;;;;;;80.33;25.23;;;1.30;1.00;;;;;;4881176;29;20178;-88
2022/02/11 22:12:13;;;;;;;85.90;24.67;;;1.10;1.00;;;;;;4882429;29;20780;-87
2022/02/11 22:14:38;;;;;;;83.90;24.77;;;1.10;1.00;;;;;;4881888;29;20167;-87
2022/02/11 22:17:04;;;;;;;81.93;22.83;;;1.10;1.00;;;;;;4882456;29;20167;-87
2022/02/11 22:19:30;;;;;;;85.00;24.07;;;1.00;1.00;;;;;;4882489;29;20171;-87
2022/02/11 22:21:56;;;;;;;81.17;25.80;;;0.90;1.00;;;;;;4881045;29;20891;-88
2022/02/11 22:24:22;;;;;;;80.27;22.90;;;0.90;4.40;;;;;;4881116;29;20170;-87
2022/02/11 22:26:48;;;;;;;78.30;23.47;;;0.80;5.80;;;;;;4880980;29;20203;-87
2022/02/11 22:29:13;;;;;;;77.83;24.43;;;0.80;11.70;;;;;;4882150;29;20708;-87
2022/02/11 22:31:39;;;;;;;83.53;26.10;;;0.70;11.60;;;;;;4882662;29;20947;-87
2022/02/11 22:34:08;;;;;;;82.53;24.33;;;0.70;20.10;;;;;;4881027;29;20471;-87
2022/02/11 22:36:35;;;;;;;81.00;27.23;;;0.70;12.80;;;;;;4882133;29;20437;-87
2022/02/11 22:39:10;;;;;;;83.45;26.70;;;0.70;10.20;;;;;;4881198;29;20174;-87
2022/02/11 22:41:37;;;;;;;84.43;26.25;;;0.70;15.30;;;;;;4882842;29;20214;-87
2022/02/11 22:44:03;;;;;;;81.25;26.42;;;0.60;12.80;;;;;;4881012;29;20187;-87
2022/02/11 22:46:30;;;;;;;85.68;21.52;;;0.60;14.40;;;;;;4881056;29;20199;-87
2022/02/11 22:54:21;;;;;;;80.65;23.35;;;0.50;20.90;;;;;;4952177;23;20226;-85
2022/02/11 22:56:51;;;;;;;78.30;24.37;;;0.50;20.40;;;;;;4887561;29;20187;-85
2022/02/11 22:59:20;;;;;;;82.80;22.15;;;0.40;21.80;;;;;;4886431;29;20419;-85
2022/02/11 23:01:46;;;;;;;80.18;24.58;;;0.40;17.20;;;;;;4885945;29;20178;-85
2022/02/11 23:04:19;;;;;;;84.17;24.93;;;0.40;23.80;;;;;;4886494;29;20179;-86
2022/02/11 23:06:47;;;;;;;81.68;26.88;;;0.40;19.70;;;;;;4888121;29;20265;-85
2022/02/11 23:09:23;;;;;;;90.88;33.05;;;0.40;28.30;;;;;;4886730;29;20683;-85
2022/02/11 23:11:52;;;;;;;88.80;30.45;;;0.40;32.50;;;;;;4886610;29;20167;-85
2022/02/11 23:14:19;;;;;;;82.15;27.50;;;0.30;35.00;;;;;;4888185;29;20163;-85
2022/02/11 23:16:46;;;;;;;86.90;30.25;;;0.40;40.20;;;;;;4885772;29;20224;-85
2022/02/11 23:19:12;;;;;;;85.10;27.83;;;0.40;44.10;;;;;;4887455;29;20178;-85
2022/02/11 23:21:38;;;;;;;85.70;26.73;;;0.40;38.60;;;;;;4887794;29;20175;-86
2022/02/11 23:24:06;;;;;;;81.53;27.25;;;0.40;40.40;;;;;;4886240;29;20175;-85
2022/02/11 23:26:31;;;;;;;76.43;24.77;;;0.40;37.40;;;;;;4885567;29;20201;-86
2022/02/11 23:28:58;;;;;;;82.03;22.47;;;0.40;32.40;;;;;;4886312;29;20198;-86
2022/02/11 23:31:24;;;;;;;80.75;28.20;;;0.40;30.50;;;;;;4887366;29;20231;-86
2022/02/11 23:33:50;;;;;;;78.77;24.63;;;0.40;46.90;;;;;;4885769;29;20201;-85
2022/02/11 23:36:18;;;;;;;82.53;26.42;;;0.40;58.10;;;;;;4886441;29;20468;-85
2022/02/11 23:38:45;;;;;;;78.07;24.27;;;0.40;47.60;;;;;;4886392;29;20643;-85
2022/02/11 23:41:11;;;;;;;84.00;23.63;;;0.40;53.10;;;;;;4886616;29;20182;-85
2022/02/11 23:43:45;;;;;;;78.15;26.02;;;0.40;42.10;;;;;;4887136;29;20668;-85
2022/02/11 23:46:11;;;;;;;80.53;29.95;;;0.40;42.90;;;;;;4887127;29;20189;-85